createdAt,value
2019-05-29T00:44:15.403Z,11.97
2019-05-29T01:22:20.758Z,11.73
2019-05-29T01:23:20.866Z,11.73
2019-05-29T04:20:01.380Z,13.16
2019-05-29T04:22:24.115Z,13.19
2019-05-29T04:47:15.763Z,13.39
2019-05-29T04:48:23.510Z,13.43
2019-05-29T04:49:20.023Z,13.46
2019-05-29T04:50:15.725Z,13.47
2019-05-29T04:51:15.701Z,13.47
2019-05-29T04:52:15.834Z,13.55
2019-05-29T04:53:15.681Z,13.47
2019-05-29T04:54:15.671Z,13.58
2019-05-29T04:55:15.961Z,13.61
2019-05-29T04:56:15.641Z,13.58
2019-05-29T04:57:15.631Z,13.61
2019-05-29T04:58:15.759Z,13.60
2019-05-29T04:59:15.609Z,13.60
2019-05-29T05:00:15.610Z,13.67
2019-05-29T05:01:15.952Z,13.67
2019-05-29T05:02:15.580Z,13.70
2019-05-29T05:03:15.568Z,13.70
2019-05-29T05:04:15.876Z,13.64
2019-05-29T05:05:15.553Z,13.68
2019-05-29T05:06:15.530Z,13.67
2019-05-29T05:07:15.763Z,13.71
2019-05-29T05:08:15.520Z,13.68
2019-05-29T05:09:15.499Z,13.71
2019-05-29T05:10:15.674Z,13.78
2019-05-29T05:11:15.485Z,13.75
2019-05-29T05:12:15.471Z,13.83
2019-05-29T05:13:15.591Z,13.82
2019-05-29T05:14:15.459Z,13.78
2019-05-29T05:15:15.434Z,13.82
2019-05-29T05:16:15.780Z,13.76
2019-05-29T05:17:25.675Z,13.83
2019-05-29T05:18:15.404Z,13.87
2019-05-29T05:19:27.641Z,13.86
2019-05-29T05:20:15.387Z,14.01
2019-05-29T05:21:15.650Z,13.91
2019-05-29T05:22:15.715Z,13.91
2019-05-29T05:23:15.357Z,14.04
2019-05-29T05:24:15.329Z,14.05
2019-05-29T05:25:15.619Z,14.08
2019-05-29T05:26:15.313Z,13.95
2019-05-29T05:27:15.307Z,13.98
2019-05-29T05:28:15.628Z,14.04
2019-05-29T05:29:15.296Z,14.05
2019-05-29T05:30:15.263Z,14.04
2019-05-29T05:31:15.527Z,14.04
2019-05-29T05:32:15.263Z,14.08
2019-05-29T05:33:15.232Z,14.23
2019-05-29T05:34:15.358Z,14.16
2019-05-29T05:35:15.235Z,14.37
2019-05-29T05:36:15.201Z,14.26
2019-05-29T05:37:15.349Z,14.25
2019-05-29T05:38:15.192Z,14.26
2019-05-29T05:39:15.164Z,14.28
2019-05-29T05:40:15.358Z,14.38
2019-05-29T05:42:32.891Z,14.26
2019-05-29T05:43:32.786Z,14.36
2019-05-29T05:44:32.749Z,14.28
2019-05-29T05:53:03.565Z,14.40
2019-05-29T05:54:03.878Z,14.45
2019-05-29T05:55:03.543Z,14.37
2019-05-29T05:56:03.529Z,14.48
2019-05-29T05:57:03.669Z,14.41
2019-05-29T05:58:03.695Z,14.48
2019-05-29T05:59:03.503Z,14.44
2019-05-29T06:00:03.480Z,14.48
2019-05-29T06:01:03.763Z,14.41
2019-05-29T06:02:03.474Z,14.38
2019-05-29T06:03:03.454Z,14.41
2019-05-29T06:06:00.483Z,14.34
2019-05-29T06:07:08.118Z,14.41
2019-05-29T06:08:00.629Z,14.51
2019-05-29T06:10:16.554Z,14.52
2019-05-29T06:11:16.651Z,14.48
2019-05-29T06:13:27.275Z,14.51
2019-05-29T06:14:27.415Z,14.48
2019-05-29T06:15:27.110Z,14.61
2019-05-29T06:16:27.079Z,14.51
2019-05-29T06:17:27.204Z,14.62
2019-05-29T06:18:27.082Z,14.66
2019-05-29T06:19:27.060Z,14.53
2019-05-29T06:20:27.054Z,14.62
2019-05-29T06:21:27.034Z,14.56
2019-05-29T06:22:27.016Z,14.56
2019-05-29T06:24:28.004Z,14.62
2019-05-29T06:25:27.015Z,14.63
2019-05-29T06:26:26.975Z,14.62
2019-05-29T06:27:27.272Z,14.67
2019-05-29T06:28:26.985Z,14.62
2019-05-29T06:29:27.093Z,14.67
2019-05-29T06:30:26.923Z,14.62
2019-05-29T06:31:27.454Z,14.67
2019-05-29T06:32:26.909Z,14.62
2019-05-29T06:33:26.894Z,14.66
2019-05-29T06:34:27.168Z,14.68
2019-05-29T06:35:26.884Z,14.70
2019-05-29T06:36:26.860Z,14.89
2019-05-29T06:37:26.952Z,14.82
2019-05-29T06:38:35.612Z,14.74
2019-05-29T06:39:27.184Z,14.81
2019-05-29T06:40:26.832Z,14.87
2019-05-29T06:41:26.802Z,14.90
2019-05-29T06:42:27.188Z,14.94
2019-05-29T06:43:26.786Z,14.92
2019-05-29T06:44:26.790Z,14.90
2019-05-29T06:45:27.057Z,15.00
2019-05-29T06:46:26.750Z,14.93
2019-05-29T06:47:26.734Z,14.86
2019-05-29T06:48:41.308Z,14.82
2019-05-29T06:49:26.718Z,14.89
2019-05-29T06:50:26.710Z,14.93
2019-05-29T06:51:26.708Z,14.90
2019-05-29T06:52:27.025Z,15.00
2019-05-29T06:53:26.719Z,14.96
2019-05-29T06:55:27.006Z,14.97
2019-05-29T06:56:26.638Z,15.02
2019-05-29T06:57:26.624Z,15.19
2019-05-29T06:58:26.935Z,15.18
2019-05-29T06:59:26.626Z,15.12
2019-05-29T07:00:35.263Z,15.27
2019-05-29T07:01:26.904Z,15.18
2019-05-29T07:02:26.571Z,15.26
2019-05-29T07:03:26.569Z,15.11
2019-05-29T07:04:34.846Z,15.12
2019-05-29T07:05:26.541Z,15.22
2019-05-29T07:06:26.662Z,15.15
2019-05-29T07:07:26.512Z,15.25
2019-05-29T07:08:38.204Z,15.27
2019-05-29T07:09:27.818Z,15.39
2019-05-29T07:10:26.627Z,15.30
